Time;durP1;ratioP1;P1;durP2;ratioP2;P2;SDS_P1;SDS_P2;PMS_P1;PMS_P2;Temp;Humidity;BMP_temperature;BMP_pressure;BME280_temperature;BME280_humidity;BME280_pressure;Samples;Min_cycle;Max_cycle;Signal;HPM_P1;HPM_P2
2024/01/23 00:01:03;;;;;;;10.82;2.45;;;;;;;;;;5113544;27;20608;-70
2024/01/23 00:03:31;;;;;;;11.23;2.28;;;;;;;;;;5133094;27;20051;-71
2024/01/23 00:05:57;;;;;;;13.10;2.70;;;;;;;;;;5122552;27;20067;-68
2024/01/23 00:08:24;;;;;;;6.13;2.58;;;;;;;;;;5110705;28;20699;-68
2024/01/23 00:10:50;;;;;;;7.68;1.80;;;;;;;;;;5112765;28;20492;-68
2024/01/23 00:13:16;;;;;;;10.05;3.65;;;;;;;;;;5113736;28;20075;-74
2024/01/23 00:15:43;;;;;;;4.68;1.90;;;;;;;;;;5111980;28;20086;-68
2024/01/23 00:18:09;;;;;;;4.97;1.73;;;;;;;;;;5111580;28;20074;-68
2024/01/23 00:20:36;;;;;;;11.57;2.88;;;;;;;;;;5110994;28;20120;-70
2024/01/23 00:23:03;;;;;;;13.57;2.10;;;;;;;;;;5109623;28;20457;-68
2024/01/23 00:25:29;;;;;;;9.48;2.65;;;;;;;;;;5108671;28;20054;-70
2024/01/23 00:27:56;;;;;;;11.73;1.90;;;;;;;;;;5109760;28;20597;-71
2024/01/23 00:30:22;;;;;;;4.90;2.42;;;;;;;;;;5110609;28;20087;-72
2024/01/23 00:32:49;;;;;;;8.15;1.70;;;;;;;;;;5110302;28;20052;-70
2024/01/23 00:35:15;;;;;;;9.40;1.90;;;;;;;;;;5110317;28;20044;-70
2024/01/23 00:37:42;;;;;;;4.18;1.52;;;;;;;;;;5110228;28;20079;-70
2024/01/23 00:40:11;;;;;;;10.20;2.30;;;;;;;;;;5110081;28;20096;-71
2024/01/23 00:42:38;;;;;;;10.05;2.28;;;;;;;;;;5109824;28;20055;-70
2024/01/23 00:45:04;;;;;;;13.10;1.90;;;;;;;;;;5109808;28;20052;-71
2024/01/23 00:47:31;;;;;;;6.47;2.22;;;;;;;;;;5109782;28;20100;-68
2024/01/23 00:49:57;;;;;;;11.75;2.83;;;;;;;;;;5109991;28;20050;-66
2024/01/23 00:52:24;;;;;;;7.97;1.67;;;;;;;;;;5129037;27;20051;-66
2024/01/23 00:54:50;;;;;;;14.52;1.88;;;;;;;;;;5129953;27;20507;-66
2024/01/23 00:57:17;;;;;;;6.50;1.88;;;;;;;;;;5130149;27;20051;-67
2024/01/23 00:59:43;;;;;;;8.07;3.03;;;;;;;;;;5130495;27;20095;-68
2024/01/23 01:02:09;;;;;;;11.70;2.78;;;;;;;;;;5130339;27;20043;-68
2024/01/23 01:04:36;;;;;;;9.65;1.85;;;;;;;;;;5112102;27;20555;-69
2024/01/23 01:07:02;;;;;;;8.80;1.90;;;;;;;;;;5092203;28;20044;-69
2024/01/23 01:09:29;;;;;;;5.40;1.95;;;;;;;;;;5109513;28;20051;-69
2024/01/23 01:11:55;;;;;;;8.73;2.00;;;;;;;;;;5108172;28;20047;-68
2024/01/23 01:14:24;;;;;;;7.72;2.63;;;;;;;;;;5109215;28;20052;-68
2024/01/23 01:16:50;;;;;;;6.97;2.50;;;;;;;;;;5109123;28;20051;-68
2024/01/23 01:19:17;;;;;;;14.45;2.30;;;;;;;;;;5109092;28;20050;-68
2024/01/23 01:21:43;;;;;;;14.98;2.20;;;;;;;;;;5109177;28;20078;-69
2024/01/23 01:24:10;;;;;;;8.35;2.97;;;;;;;;;;5109178;28;20051;-69
2024/01/23 01:26:37;;;;;;;7.88;2.50;;;;;;;;;;5108850;28;20043;-69
2024/01/23 01:29:04;;;;;;;10.65;2.50;;;;;;;;;;5109274;28;20052;-66
2024/01/23 01:31:30;;;;;;;10.50;2.97;;;;;;;;;;5109226;28;20050;-69
2024/01/23 01:33:56;;;;;;;10.60;2.40;;;;;;;;;;5109236;28;20043;-69
2024/01/23 01:36:23;;;;;;;7.55;1.90;;;;;;;;;;5108918;28;20083;-70
2024/01/23 01:38:49;;;;;;;10.13;2.72;;;;;;;;;;5091483;28;20055;-70
2024/01/23 01:41:16;;;;;;;8.45;3.55;;;;;;;;;;5109850;28;20097;-69
2024/01/23 01:43:43;;;;;;;12.25;3.17;;;;;;;;;;5109437;28;20446;-69
2024/01/23 01:46:17;;;;;;;13.57;2.92;;;;;;;;;;5108950;28;20047;-69
2024/01/23 01:48:45;;;;;;;14.23;2.60;;;;;;;;;;5108679;28;20400;-69
2024/01/23 01:51:12;;;;;;;9.98;2.70;;;;;;;;;;5117803;27;20051;-69
2024/01/23 01:53:39;;;;;;;6.90;2.22;;;;;;;;;;5129310;27;20055;-71
2024/01/23 01:56:06;;;;;;;6.32;2.22;;;;;;;;;;5129355;27;20059;-69
2024/01/23 01:58:33;;;;;;;11.93;2.38;;;;;;;;;;5129300;27;20104;-70
2024/01/23 02:01:00;;;;;;;7.60;2.45;;;;;;;;;;5129400;27;20043;-69
2024/01/23 02:03:30;;;;;;;5.60;2.20;;;;;;;;;;5129016;27;20057;-70
2024/01/23 02:05:57;;;;;;;7.65;2.78;;;;;;;;;;5100484;28;20047;-70
2024/01/23 02:08:24;;;;;;;8.38;2.67;;;;;;;;;;5090242;28;20055;-70
2024/01/23 02:10:52;;;;;;;11.02;2.40;;;;;;;;;;5111632;28;20101;-70
2024/01/23 02:13:18;;;;;;;7.65;3.10;;;;;;;;;;5111165;28;20051;-70
2024/01/23 02:15:45;;;;;;;7.05;2.22;;;;;;;;;;5109759;28;20488;-69
2024/01/23 02:18:11;;;;;;;6.57;2.55;;;;;;;;;;5090298;28;20113;-70
2024/01/23 02:20:38;;;;;;;7.25;2.35;;;;;;;;;;5108109;28;20047;-70
2024/01/23 02:23:04;;;;;;;9.18;2.30;;;;;;;;;;5107016;28;20075;-69
2024/01/23 02:25:31;;;;;;;10.27;2.20;;;;;;;;;;5108262;28;20074;-69
2024/01/23 02:27:59;;;;;;;8.43;2.05;;;;;;;;;;5108299;28;20043;-70
2024/01/23 02:30:25;;;;;;;11.40;2.65;;;;;;;;;;5108082;28;20507;-69
2024/01/23 02:32:52;;;;;;;8.70;2.65;;;;;;;;;;5107813;28;20055;-69
2024/01/23 02:35:19;;;;;;;12.50;3.15;;;;;;;;;;5109003;28;20083;-70
2024/01/23 02:37:45;;;;;;;13.68;2.63;;;;;;;;;;5109758;28;20044;-70
2024/01/23 02:40:12;;;;;;;15.20;2.28;;;;;;;;;;5108909;28;20059;-70
2024/01/23 02:42:38;;;;;;;6.88;2.45;;;;;;;;;;5108221;28;20048;-70
2024/01/23 02:45:05;;;;;;;15.45;2.55;;;;;;;;;;5107322;28;20093;-69
2024/01/23 02:47:31;;;;;;;3.95;1.20;;;;;;;;;;5108239;28;20051;-70
2024/01/23 02:49:58;;;;;;;6.50;1.80;;;;;;;;;;5109555;28;20492;-70
2024/01/23 02:52:27;;;;;;;15.30;3.03;;;;;;;;;;5131403;27;20047;-70
2024/01/23 02:54:54;;;;;;;7.50;2.33;;;;;;;;;;5132259;27;20487;-69
2024/01/23 02:57:20;;;;;;;4.13;2.70;;;;;;;;;;5132785;27;20108;-69
2024/01/23 02:59:46;;;;;;;14.27;2.50;;;;;;;;;;5132376;27;20082;-69
2024/01/23 03:02:13;;;;;;;5.65;2.20;;;;;;;;;;5134140;27;20138;-69
2024/01/23 03:04:39;;;;;;;7.20;2.22;;;;;;;;;;5116465;27;20445;-70
2024/01/23 03:07:06;;;;;;;7.40;1.98;;;;;;;;;;5111029;27;20055;-69
2024/01/23 03:09:33;;;;;;;7.43;2.28;;;;;;;;;;5111634;28;20104;-69
2024/01/23 03:12:03;;;;;;;7.63;1.77;;;;;;;;;;5111889;28;20076;-69
2024/01/23 03:14:30;;;;;;;8.38;1.85;;;;;;;;;;5093444;28;20052;-70
2024/01/23 03:16:56;;;;;;;8.88;1.98;;;;;;;;;;5111776;28;20143;-70
2024/01/23 03:19:22;;;;;;;11.55;2.30;;;;;;;;;;5111595;28;20554;-69
2024/01/23 03:21:49;;;;;;;8.88;1.88;;;;;;;;;;5111654;28;20048;-69
2024/01/23 03:24:15;;;;;;;3.95;1.83;;;;;;;;;;5111778;28;20080;-69
2024/01/23 03:26:42;;;;;;;10.90;2.58;;;;;;;;;;5111557;28;20139;-70
2024/01/23 03:29:09;;;;;;;6.28;2.20;;;;;;;;;;5114095;28;20637;-70
2024/01/23 03:31:36;;;;;;;5.55;1.67;;;;;;;;;;5112342;28;20523;-69
2024/01/23 03:34:02;;;;;;;8.05;2.67;;;;;;;;;;5111163;28;20067;-70
2024/01/23 03:36:29;;;;;;;6.07;1.80;;;;;;;;;;5111277;28;20059;-69
2024/01/23 03:38:55;;;;;;;5.20;2.13;;;;;;;;;;5111274;28;20537;-70
2024/01/23 03:41:22;;;;;;;5.90;1.90;;;;;;;;;;5111122;28;20157;-69
2024/01/23 03:43:48;;;;;;;9.52;1.98;;;;;;;;;;5111166;28;20100;-69
2024/01/23 03:46:15;;;;;;;6.03;1.50;;;;;;;;;;5109949;28;20697;-70
2024/01/23 03:48:41;;;;;;;7.20;2.08;;;;;;;;;;5111322;28;20043;-70
2024/01/23 03:51:08;;;;;;;7.65;1.83;;;;;;;;;;5119296;27;20047;-69
2024/01/23 03:53:34;;;;;;;8.45;2.35;;;;;;;;;;5131450;27;20047;-70
2024/01/23 03:56:00;;;;;;;8.27;2.10;;;;;;;;;;5131531;27;20174;-69
2024/01/23 03:58:27;;;;;;;10.07;2.60;;;;;;;;;;5131107;27;20039;-70
2024/01/23 04:00:53;;;;;;;9.85;1.88;;;;;;;;;;5131242;27;20083;-69
2024/01/23 04:03:20;;;;;;;6.85;1.35;;;;;;;;;;5113306;27;20161;-70
2024/01/23 04:05:46;;;;;;;6.90;2.05;;;;;;;;;;5124343;27;20048;-70
2024/01/23 04:08:13;;;;;;;6.88;1.38;;;;;;;;;;5114858;28;20055;-69
2024/01/23 04:10:39;;;;;;;4.57;2.17;;;;;;;;;;5113016;28;20047;-70
2024/01/23 04:13:06;;;;;;;6.35;1.73;;;;;;;;;;5111175;28;20052;-69
2024/01/23 04:15:32;;;;;;;10.15;1.48;;;;;;;;;;5110247;28;20134;-69
2024/01/23 04:17:59;;;;;;;5.82;1.90;;;;;;;;;;5111170;28;20554;-69
2024/01/23 04:20:25;;;;;;;13.00;3.40;;;;;;;;;;5110758;28;20048;-70
2024/01/23 04:22:52;;;;;;;4.90;1.83;;;;;;;;;;5092260;28;20086;-69
2024/01/23 04:25:18;;;;;;;5.70;1.85;;;;;;;;;;5109379;28;20035;-70
2024/01/23 04:27:44;;;;;;;5.47;1.33;;;;;;;;;;5109541;28;20048;-70
2024/01/23 04:30:11;;;;;;;9.80;2.83;;;;;;;;;;5110533;28;20051;-69
2024/01/23 04:32:38;;;;;;;5.32;1.33;;;;;;;;;;5110467;28;20176;-70
2024/01/23 04:35:04;;;;;;;9.20;1.67;;;;;;;;;;5110332;28;20048;-70
2024/01/23 04:37:31;;;;;;;4.95;1.73;;;;;;;;;;5110387;28;20059;-69
2024/01/23 04:39:57;;;;;;;8.27;2.03;;;;;;;;;;5110273;28;20048;-69
2024/01/23 04:42:24;;;;;;;9.20;1.42;;;;;;;;;;5110629;28;20097;-70
2024/01/23 04:44:50;;;;;;;8.27;2.10;;;;;;;;;;5110774;28;20079;-69
2024/01/23 04:47:17;;;;;;;5.50;1.35;;;;;;;;;;5110188;28;20051;-69
2024/01/23 04:49:43;;;;;;;7.15;1.52;;;;;;;;;;5110496;28;20498;-69
2024/01/23 04:52:10;;;;;;;4.32;1.30;;;;;;;;;;5127486;27;20080;-69
2024/01/23 04:54:36;;;;;;;6.30;1.48;;;;;;;;;;5130953;27;20051;-69
2024/01/23 04:57:03;;;;;;;9.63;1.15;;;;;;;;;;5113032;27;20541;-70
2024/01/23 04:59:30;;;;;;;3.38;1.25;;;;;;;;;;5131519;27;20146;-70
2024/01/23 05:01:56;;;;;;;5.00;1.38;;;;;;;;;;5130861;27;20084;-69
2024/01/23 05:04:23;;;;;;;9.07;1.20;;;;;;;;;;5112067;27;20074;-69
2024/01/23 05:06:49;;;;;;;3.95;1.02;;;;;;;;;;5112834;27;20125;-70
2024/01/23 05:09:16;;;;;;;5.65;1.55;;;;;;;;;;5111357;28;20050;-69
2024/01/23 05:11:42;;;;;;;1.95;0.82;;;;;;;;;;5111561;28;20403;-69
2024/01/23 05:14:09;;;;;;;6.45;1.42;;;;;;;;;;5109934;28;20130;-70
2024/01/23 05:16:36;;;;;;;7.65;2.05;;;;;;;;;;5108099;28;20048;-69
2024/01/23 05:19:03;;;;;;;7.25;2.63;;;;;;;;;;5109367;28;20048;-70
2024/01/23 05:21:29;;;;;;;12.00;2.35;;;;;;;;;;5108092;28;20488;-69
2024/01/23 05:23:56;;;;;;;4.85;1.85;;;;;;;;;;5109178;28;20056;-69
2024/01/23 05:26:22;;;;;;;8.63;1.80;;;;;;;;;;5108022;28;20511;-68
2024/01/23 05:28:49;;;;;;;13.85;1.33;;;;;;;;;;5108971;28;20063;-67
2024/01/23 05:31:15;;;;;;;7.53;1.58;;;;;;;;;;5109291;28;20043;-65
2024/01/23 05:33:42;;;;;;;6.93;1.45;;;;;;;;;;5107721;28;20048;-65
2024/01/23 05:36:13;;;;;;;10.68;2.20;;;;;;;;;;5092473;28;20743;-66
2024/01/23 05:38:39;;;;;;;11.50;2.65;;;;;;;;;;5110823;28;20047;-66
2024/01/23 05:41:05;;;;;;;13.20;2.60;;;;;;;;;;5109120;28;20071;-66
2024/01/23 05:43:32;;;;;;;10.07;1.77;;;;;;;;;;5109176;28;20395;-67
2024/01/23 05:45:58;;;;;;;11.60;2.25;;;;;;;;;;5107886;28;20043;-65
2024/01/23 05:48:25;;;;;;;20.98;3.15;;;;;;;;;;5108781;28;20092;-66
2024/01/23 05:50:51;;;;;;;12.80;2.65;;;;;;;;;;5114499;27;20681;-68
2024/01/23 05:53:17;;;;;;;11.52;3.65;;;;;;;;;;5129293;27;20074;-66
2024/01/23 05:55:44;;;;;;;6.28;1.90;;;;;;;;;;5129393;27;20104;-67
2024/01/23 05:58:10;;;;;;;11.15;2.67;;;;;;;;;;5129359;27;20065;-66
2024/01/23 06:00:37;;;;;;;14.00;2.20;;;;;;;;;;5129155;27;20460;-72
2024/01/23 06:03:04;;;;;;;13.27;2.20;;;;;;;;;;5130644;27;20083;-70
2024/01/23 06:05:31;;;;;;;7.65;2.65;;;;;;;;;;5124008;27;20050;-67
2024/01/23 06:07:58;;;;;;;13.95;2.05;;;;;;;;;;5108695;28;20043;-67
2024/01/23 06:10:24;;;;;;;20.33;2.78;;;;;;;;;;5108682;28;20146;-70
2024/01/23 06:12:51;;;;;;;19.05;3.70;;;;;;;;;;5107130;28;20086;-67
2024/01/23 06:15:18;;;;;;;20.60;2.95;;;;;;;;;;5106866;28;20039;-67
2024/01/23 06:17:44;;;;;;;16.08;3.45;;;;;;;;;;5108305;28;20111;-75
2024/01/23 06:20:12;;;;;;;13.15;2.00;;;;;;;;;;5110102;28;20458;-69
2024/01/23 06:22:40;;;;;;;14.50;2.97;;;;;;;;;;5108373;28;20055;-68
2024/01/23 06:25:07;;;;;;;12.10;3.42;;;;;;;;;;5109809;28;20648;-70
2024/01/23 06:27:35;;;;;;;11.60;2.38;;;;;;;;;;5110090;28;20103;-70
2024/01/23 06:30:02;;;;;;;13.98;2.72;;;;;;;;;;5110128;28;20457;-70
2024/01/23 06:32:28;;;;;;;13.27;2.45;;;;;;;;;;5109167;28;20510;-69
2024/01/23 06:34:55;;;;;;;11.98;2.60;;;;;;;;;;5106656;28;20066;-68
2024/01/23 06:37:21;;;;;;;11.88;3.55;;;;;;;;;;5108436;28;20644;-68
2024/01/23 06:39:48;;;;;;;12.70;2.78;;;;;;;;;;5090041;28;20126;-69
2024/01/23 06:42:14;;;;;;;12.93;2.95;;;;;;;;;;5108283;28;20090;-68
2024/01/23 06:44:40;;;;;;;11.43;3.35;;;;;;;;;;5108135;28;20052;-70
2024/01/23 06:47:07;;;;;;;16.35;2.88;;;;;;;;;;5106395;28;20048;-69
2024/01/23 06:49:33;;;;;;;11.57;2.30;;;;;;;;;;5106974;28;20138;-68
2024/01/23 06:52:01;;;;;;;12.27;2.63;;;;;;;;;;5124161;28;20066;-71
2024/01/23 06:54:27;;;;;;;15.00;2.55;;;;;;;;;;5130685;28;20044;-71
2024/01/23 06:56:54;;;;;;;23.90;4.47;;;;;;;;;;5129125;28;20059;-71
2024/01/23 06:59:21;;;;;;;12.77;2.55;;;;;;;;;;5128373;28;20055;-71
2024/01/23 07:01:47;;;;;;;17.02;3.45;;;;;;;;;;5128478;28;20071;-68
2024/01/23 07:04:13;;;;;;;20.55;4.30;;;;;;;;;;5128503;28;20075;-69
2024/01/23 07:06:40;;;;;;;13.25;2.85;;;;;;;;;;5112039;28;20051;-69
2024/01/23 07:09:06;;;;;;;8.52;3.13;;;;;;;;;;5107841;28;20407;-69
2024/01/23 07:11:33;;;;;;;10.95;3.00;;;;;;;;;;5107805;28;20055;-71
2024/01/23 07:14:00;;;;;;;14.82;2.20;;;;;;;;;;5107973;28;20663;-68
2024/01/23 07:16:26;;;;;;;16.23;3.22;;;;;;;;;;5108200;28;20055;-69
2024/01/23 07:18:52;;;;;;;28.45;4.15;;;;;;;;;;5108157;28;20044;-69
2024/01/23 07:21:19;;;;;;;14.25;3.30;;;;;;;;;;5107979;28;20047;-69
2024/01/23 07:23:45;;;;;;;14.10;3.20;;;;;;;;;;5107805;28;20044;-71
2024/01/23 07:26:12;;;;;;;18.75;4.40;;;;;;;;;;5107592;28;20408;-69
2024/01/23 07:28:39;;;;;;;23.50;3.00;;;;;;;;;;5107702;28;20487;-70
2024/01/23 07:31:25;;;;;;;15.15;3.22;;;;;;;;;;5108052;28;20127;-68
2024/01/23 07:33:52;;;;;;;18.75;4.50;;;;;;;;;;5107565;28;20055;-68
2024/01/23 07:36:18;;;;;;;11.95;3.85;;;;;;;;;;4997166;28;20052;-67
2024/01/23 07:38:45;;;;;;;16.95;3.58;;;;;;;;;;5070188;28;20058;-68
2024/01/23 07:41:11;;;;;;;18.95;3.42;;;;;;;;;;5069386;28;20178;-68
2024/01/23 07:43:38;;;;;;;24.85;3.67;;;;;;;;;;4989729;28;20757;-68
2024/01/23 07:46:05;;;;;;;20.55;5.13;;;;;;;;;;5070819;28;20063;-69
2024/01/23 07:48:31;;;;;;;14.30;3.47;;;;;;;;;;5070699;28;20056;-68
2024/01/23 07:50:58;;;;;;;16.00;3.35;;;;;;;;;;5070294;28;20076;-68
2024/01/23 07:53:24;;;;;;;25.55;3.78;;;;;;;;;;5070499;28;20049;-70
2024/01/23 07:55:52;;;;;;;10.90;2.53;;;;;;;;;;5070151;28;20530;-69
2024/01/23 07:58:18;;;;;;;10.52;2.65;;;;;;;;;;5070390;28;20052;-70
2024/01/23 08:00:44;;;;;;;12.18;2.45;;;;;;;;;;5070986;28;20041;-70
2024/01/23 08:03:11;;;;;;;13.90;3.60;;;;;;;;;;5073891;28;20056;-74
2024/01/23 08:05:38;;;;;;;9.52;3.05;;;;;;;;;;5073726;28;20048;-72
2024/01/23 08:08:04;;;;;;;12.43;3.17;;;;;;;;;;5070605;28;20040;-73
2024/01/23 08:10:31;;;;;;;16.88;2.95;;;;;;;;;;5052767;28;20098;-71
2024/01/23 08:12:57;;;;;;;10.73;3.42;;;;;;;;;;5070164;28;20436;-71
2024/01/23 08:15:24;;;;;;;14.30;2.58;;;;;;;;;;5070213;28;20577;-72
2024/01/23 08:17:50;;;;;;;15.82;2.65;;;;;;;;;;5069649;28;20052;-71
2024/01/23 08:20:18;;;;;;;17.63;3.75;;;;;;;;;;5068002;28;20137;-68
2024/01/23 08:22:44;;;;;;;17.48;3.35;;;;;;;;;;5056237;28;20056;-70
2024/01/23 08:25:11;;;;;;;13.32;3.53;;;;;;;;;;5068913;28;20060;-71
2024/01/23 08:27:37;;;;;;;16.75;3.38;;;;;;;;;;5051087;28;20120;-71
2024/01/23 08:30:04;;;;;;;12.40;3.40;;;;;;;;;;5068784;28;20109;-71
2024/01/23 08:32:31;;;;;;;23.88;3.15;;;;;;;;;;5069235;28;20056;-70
2024/01/23 08:34:57;;;;;;;10.43;3.28;;;;;;;;;;5068204;28;20139;-68
2024/01/23 08:37:25;;;;;;;18.85;3.35;;;;;;;;;;5068668;28;20052;-67
2024/01/23 08:39:53;;;;;;;19.13;3.05;;;;;;;;;;5069076;28;20174;-68
2024/01/23 08:42:20;;;;;;;15.43;3.33;;;;;;;;;;5069058;28;20639;-69
2024/01/23 08:44:49;;;;;;;16.23;2.78;;;;;;;;;;5067800;28;20041;-67
2024/01/23 08:47:19;;;;;;;15.52;3.15;;;;;;;;;;5067528;28;20066;-69
2024/01/23 08:49:46;;;;;;;12.32;3.42;;;;;;;;;;5068747;28;20048;-69
2024/01/23 08:52:12;;;;;;;9.55;2.05;;;;;;;;;;5067440;28;20510;-70
2024/01/23 08:54:39;;;;;;;12.40;3.28;;;;;;;;;;5068630;28;20056;-68
2024/01/23 08:57:05;;;;;;;17.63;3.20;;;;;;;;;;5050156;28;20048;-69
2024/01/23 08:59:32;;;;;;;24.75;3.58;;;;;;;;;;5068099;28;20052;-66
2024/01/23 09:01:58;;;;;;;27.08;3.85;;;;;;;;;;5067786;28;20340;-66
2024/01/23 09:04:25;;;;;;;19.55;2.95;;;;;;;;;;5068496;28;20098;-67
2024/01/23 09:06:51;;;;;;;19.67;3.90;;;;;;;;;;5067745;28;20063;-69
2024/01/23 09:09:18;;;;;;;16.23;2.97;;;;;;;;;;5067688;28;20530;-69
2024/01/23 09:11:45;;;;;;;19.00;3.88;;;;;;;;;;5049947;28;20064;-69
2024/01/23 09:14:11;;;;;;;15.57;3.67;;;;;;;;;;5067880;28;20060;-66
2024/01/23 09:16:38;;;;;;;13.52;3.05;;;;;;;;;;5067486;28;20048;-66
2024/01/23 09:19:04;;;;;;;19.25;3.28;;;;;;;;;;5049506;28;20049;-67
2024/01/23 09:21:31;;;;;;;17.30;3.60;;;;;;;;;;5067984;28;20056;-67
2024/01/23 09:23:58;;;;;;;21.15;3.50;;;;;;;;;;5067663;28;20080;-67
2024/01/23 09:26:24;;;;;;;21.95;4.68;;;;;;;;;;5067747;28;20055;-67
2024/01/23 09:28:51;;;;;;;24.95;5.32;;;;;;;;;;5067121;28;20106;-68
2024/01/23 09:31:19;;;;;;;15.27;3.65;;;;;;;;;;5067766;28;20044;-68
2024/01/23 09:33:46;;;;;;;18.65;4.38;;;;;;;;;;5067609;28;20147;-68
2024/01/23 09:36:12;;;;;;;18.10;3.95;;;;;;;;;;5049782;28;20131;-69
2024/01/23 09:38:39;;;;;;;13.02;3.78;;;;;;;;;;5067741;28;20078;-66
2024/01/23 09:41:11;;;;;;;19.33;3.30;;;;;;;;;;5060775;28;20045;-69
2024/01/23 09:43:40;;;;;;;18.50;4.95;;;;;;;;;;5047557;28;20053;-67
2024/01/23 09:46:08;;;;;;;16.48;4.93;;;;;;;;;;5056934;28;20044;-69
2024/01/23 09:48:35;;;;;;;17.90;4.65;;;;;;;;;;5048894;28;20110;-69
2024/01/23 09:51:02;;;;;;;18.58;3.47;;;;;;;;;;5045929;28;20049;-70
2024/01/23 09:53:29;;;;;;;18.02;3.20;;;;;;;;;;5047713;28;20081;-69
2024/01/23 09:55:58;;;;;;;18.98;3.72;;;;;;;;;;5047700;28;20053;-69
2024/01/23 09:58:25;;;;;;;11.25;3.10;;;;;;;;;;5045659;28;20584;-69
2024/01/23 10:00:53;;;;;;;15.60;3.30;;;;;;;;;;5047020;28;20080;-69
2024/01/23 10:03:20;;;;;;;11.75;2.85;;;;;;;;;;5046974;28;20045;-70
2024/01/23 10:05:47;;;;;;;19.95;3.30;;;;;;;;;;5047138;28;20045;-71
2024/01/23 10:08:14;;;;;;;20.75;4.03;;;;;;;;;;5047150;28;20434;-70
2024/01/23 10:10:40;;;;;;;19.20;3.33;;;;;;;;;;5047241;28;20099;-69
2024/01/23 10:13:11;;;;;;;9.57;3.20;;;;;;;;;;5046758;28;20049;-70
2024/01/23 10:15:37;;;;;;;27.97;5.27;;;;;;;;;;5048805;28;20048;-71
2024/01/23 10:18:05;;;;;;;25.13;5.60;;;;;;;;;;5067915;28;20293;-70
2024/01/23 10:20:35;;;;;;;25.92;4.38;;;;;;;;;;5067121;28;20052;-69
2024/01/23 10:23:02;;;;;;;17.40;3.60;;;;;;;;;;5066918;28;20485;-70
2024/01/23 10:25:31;;;;;;;18.58;2.95;;;;;;;;;;5066939;28;20094;-70
2024/01/23 10:27:58;;;;;;;15.43;2.90;;;;;;;;;;5067095;28;20102;-70
2024/01/23 10:30:24;;;;;;;21.58;4.47;;;;;;;;;;5066883;28;20806;-72
2024/01/23 10:32:51;;;;;;;18.33;3.25;;;;;;;;;;5066568;28;20041;-71
2024/01/23 10:35:18;;;;;;;13.38;3.47;;;;;;;;;;5067003;28;20166;-70
2024/01/23 10:37:45;;;;;;;19.90;5.78;;;;;;;;;;5029009;28;20540;-71
2024/01/23 10:40:12;;;;;;;16.73;4.47;;;;;;;;;;5049239;28;20056;-69
2024/01/23 10:42:39;;;;;;;15.68;3.72;;;;;;;;;;5049157;28;20056;-71
2024/01/23 10:45:06;;;;;;;20.88;5.05;;;;;;;;;;5066911;28;20600;-70
2024/01/23 10:47:32;;;;;;;17.33;3.55;;;;;;;;;;5066864;28;20075;-69
2024/01/23 10:49:59;;;;;;;27.60;5.30;;;;;;;;;;5066704;28;20409;-68
2024/01/23 10:52:30;;;;;;;13.77;3.55;;;;;;;;;;5066676;28;20102;-70
2024/01/23 10:54:57;;;;;;;17.77;3.20;;;;;;;;;;5048868;28;20098;-68
2024/01/23 10:57:23;;;;;;;22.75;3.20;;;;;;;;;;5066908;28;20084;-72
2024/01/23 10:59:50;;;;;;;16.50;4.32;;;;;;;;;;5066666;28;20786;-70
2024/01/23 11:02:30;;;;;;;21.15;4.07;;;;;;;;;;5067462;28;20500;-72
2024/01/23 11:04:58;;;;;;;17.95;3.72;;;;;;;;;;5066767;28;20522;-70
2024/01/23 11:07:27;;;;;;;13.23;3.42;;;;;;;;;;5066271;28;20044;-71
2024/01/23 11:10:01;;;;;;;13.65;4.25;;;;;;;;;;5046885;28;20053;-71
2024/01/23 11:12:30;;;;;;;16.40;3.58;;;;;;;;;;5032797;28;20052;-71
2024/01/23 11:14:59;;;;;;;16.73;3.50;;;;;;;;;;5050229;28;20400;-70
2024/01/23 11:17:33;;;;;;;11.80;3.90;;;;;;;;;;5068455;28;20134;-71
2024/01/23 11:20:10;;;;;;;11.20;2.33;;;;;;;;;;5070409;28;20484;-70
2024/01/23 11:22:37;;;;;;;13.35;3.83;;;;;;;;;;5070569;28;20040;-71
2024/01/23 11:25:04;;;;;;;18.80;4.88;;;;;;;;;;5070024;28;20070;-71
2024/01/23 11:27:31;;;;;;;12.60;2.65;;;;;;;;;;5070448;28;20048;-69
2024/01/23 11:29:58;;;;;;;18.05;4.07;;;;;;;;;;5070332;28;20044;-69
2024/01/23 11:32:28;;;;;;;16.25;3.63;;;;;;;;;;5069863;28;20158;-69
2024/01/23 11:35:01;;;;;;;19.75;4.03;;;;;;;;;;5068436;28;20044;-70
2024/01/23 11:37:46;;;;;;;16.23;3.95;;;;;;;;;;5067902;28;20099;-70
2024/01/23 11:40:29;;;;;;;13.35;3.38;;;;;;;;;;5070385;28;20706;-70
2024/01/23 11:42:58;;;;;;;22.15;4.75;;;;;;;;;;5069913;28;20056;-70
2024/01/23 11:45:26;;;;;;;24.23;5.10;;;;;;;;;;5069912;28;20047;-71
2024/01/23 11:47:56;;;;;;;14.70;3.45;;;;;;;;;;5069685;28;20056;-70
2024/01/23 11:50:23;;;;;;;13.18;3.83;;;;;;;;;;5069904;28;20056;-70
2024/01/23 11:52:54;;;;;;;23.00;6.00;;;;;;;;;;5070291;28;20052;-70
2024/01/23 11:55:20;;;;;;;16.07;3.30;;;;;;;;;;5071691;28;20102;-72
2024/01/23 11:57:48;;;;;;;15.32;3.72;;;;;;;;;;5071759;28;20313;-66
2024/01/23 12:00:15;;;;;;;29.08;5.82;;;;;;;;;;5068581;28;20079;-71
2024/01/23 12:02:42;;;;;;;15.52;3.78;;;;;;;;;;5061383;28;20052;-69
2024/01/23 12:05:08;;;;;;;16.67;4.15;;;;;;;;;;5049663;28;20045;-71
2024/01/23 12:07:37;;;;;;;16.95;4.03;;;;;;;;;;5049788;28;20098;-79
2024/01/23 12:10:07;;;;;;;20.02;3.88;;;;;;;;;;5049027;28;20386;-70
2024/01/23 12:12:34;;;;;;;12.68;2.83;;;;;;;;;;5049528;28;20080;-73
2024/01/23 12:15:00;;;;;;;23.58;3.83;;;;;;;;;;5049645;28;20106;-71
2024/01/23 12:17:27;;;;;;;21.00;3.05;;;;;;;;;;5048927;28;20076;-72
2024/01/23 12:19:53;;;;;;;17.20;4.00;;;;;;;;;;5069731;28;20059;-73
2024/01/23 12:22:20;;;;;;;30.38;4.32;;;;;;;;;;5069341;28;20048;-73
2024/01/23 12:24:46;;;;;;;15.50;3.83;;;;;;;;;;5070947;28;20076;-70
2024/01/23 12:27:13;;;;;;;27.55;5.68;;;;;;;;;;5070441;28;20044;-72
2024/01/23 12:29:48;;;;;;;23.10;3.85;;;;;;;;;;5057872;28;20474;-72
2024/01/23 12:32:14;;;;;;;16.13;4.25;;;;;;;;;;5051031;28;20060;-72
2024/01/23 12:34:42;;;;;;;18.30;5.63;;;;;;;;;;5061194;28;20102;-71
2024/01/23 12:37:09;;;;;;;24.88;5.10;;;;;;;;;;5052848;28;20104;-67
2024/01/23 12:39:35;;;;;;;31.08;6.47;;;;;;;;;;5071422;28;20607;-69
2024/01/23 12:42:02;;;;;;;20.05;3.58;;;;;;;;;;5069623;28;20051;-69
2024/01/23 12:44:29;;;;;;;18.65;3.35;;;;;;;;;;5069542;28;20131;-76
2024/01/23 12:46:56;;;;;;;27.98;5.53;;;;;;;;;;5052171;28;20056;-67
2024/01/23 12:49:23;;;;;;;24.88;4.82;;;;;;;;;;5068642;28;20126;-67
2024/01/23 12:51:49;;;;;;;22.15;4.82;;;;;;;;;;5068932;28;20452;-70
2024/01/23 12:54:16;;;;;;;24.25;5.53;;;;;;;;;;5068949;28;20055;-68
2024/01/23 12:56:42;;;;;;;15.90;3.60;;;;;;;;;;5059878;28;20052;-70
2024/01/23 12:59:09;;;;;;;19.15;4.78;;;;;;;;;;5048519;28;20045;-67
2024/01/23 13:01:36;;;;;;;20.67;3.10;;;;;;;;;;5048917;28;20049;-68
2024/01/23 13:04:02;;;;;;;24.23;4.97;;;;;;;;;;5048749;28;20049;-69
2024/01/23 13:06:29;;;;;;;23.73;4.63;;;;;;;;;;5049741;28;20053;-69
2024/01/23 13:08:56;;;;;;;22.48;4.30;;;;;;;;;;5061077;28;20123;-70
2024/01/23 13:11:23;;;;;;;21.38;3.95;;;;;;;;;;5068539;28;20140;-69
2024/01/23 13:13:49;;;;;;;22.02;4.22;;;;;;;;;;5050828;28;20689;-69
2024/01/23 13:16:16;;;;;;;24.73;5.45;;;;;;;;;;5068248;28;20564;-69
2024/01/23 13:18:43;;;;;;;17.85;3.70;;;;;;;;;;5050466;28;20047;-69
2024/01/23 13:21:10;;;;;;;15.73;4.05;;;;;;;;;;5068671;28;20060;-72
2024/01/23 13:23:36;;;;;;;13.98;3.75;;;;;;;;;;5050117;28;20054;-73
2024/01/23 13:26:03;;;;;;;27.38;4.55;;;;;;;;;;5067785;28;20044;-69
2024/01/23 13:28:31;;;;;;;26.30;4.00;;;;;;;;;;5067936;28;20102;-69
2024/01/23 13:31:03;;;;;;;19.45;3.40;;;;;;;;;;5068049;28;20137;-70
2024/01/23 13:33:31;;;;;;;21.17;3.45;;;;;;;;;;5067134;28;20049;-68
2024/01/23 13:35:58;;;;;;;22.05;4.25;;;;;;;;;;5068163;28;20052;-70
2024/01/23 13:38:24;;;;;;;16.75;3.60;;;;;;;;;;5067673;28;20094;-70
2024/01/23 13:40:51;;;;;;;26.17;3.90;;;;;;;;;;5067827;28;20088;-70
2024/01/23 13:43:17;;;;;;;24.52;5.25;;;;;;;;;;5067634;28;20056;-69
2024/01/23 13:45:44;;;;;;;18.35;4.38;;;;;;;;;;5066830;28;20492;-68
2024/01/23 13:48:10;;;;;;;22.23;4.38;;;;;;;;;;5067111;28;20049;-67
2024/01/23 13:50:37;;;;;;;22.05;3.83;;;;;;;;;;5066579;28;20064;-69
2024/01/23 13:53:03;;;;;;;15.88;4.68;;;;;;;;;;5061603;28;20164;-70
2024/01/23 13:55:30;;;;;;;19.67;4.15;;;;;;;;;;5065951;28;20053;-68
2024/01/23 13:57:56;;;;;;;22.63;5.80;;;;;;;;;;5065403;28;20052;-77
2024/01/23 14:00:25;;;;;;;22.77;4.05;;;;;;;;;;5065987;28;20072;-75
2024/01/23 14:02:52;;;;;;;23.20;3.55;;;;;;;;;;5048116;28;20052;-77
2024/01/23 14:05:19;;;;;;;18.58;3.28;;;;;;;;;;5064596;28;20059;-75
2024/01/23 14:07:46;;;;;;;22.33;4.72;;;;;;;;;;5065675;28;20110;-74
2024/01/23 14:10:16;;;;;;;20.67;4.65;;;;;;;;;;5066502;28;20131;-71
2024/01/23 14:12:45;;;;;;;17.25;3.90;;;;;;;;;;5067162;28;20658;-72
2024/01/23 14:15:13;;;;;;;16.20;3.90;;;;;;;;;;5066867;28;20131;-72
2024/01/23 14:17:41;;;;;;;24.42;4.78;;;;;;;;;;5057890;28;20072;-74
2024/01/23 14:20:11;;;;;;;28.48;5.32;;;;;;;;;;5047133;28;20171;-72
2024/01/23 14:22:43;;;;;;;28.15;4.93;;;;;;;;;;5047679;28;20408;-67
2024/01/23 14:25:10;;;;;;;22.70;4.22;;;;;;;;;;5046901;28;20489;-66
2024/01/23 14:27:39;;;;;;;23.40;3.50;;;;;;;;;;5029944;28;20052;-68
2024/01/23 14:30:08;;;;;;;24.38;4.03;;;;;;;;;;5049405;28;20048;-68
2024/01/23 14:32:35;;;;;;;18.30;3.70;;;;;;;;;;5067280;28;20434;-71